ウルムチ の空港の天気 - METARとTAF

ウルムチ地窩堡国際空港 ( ZWWW / URC ) - 中国 新疆ウイグル自治区ウルムチ市
飛行場実況気象(Metar)
観測時間10/16 14:30 CST (10/16 06:30 UTC)
風向・風速北西 4m/s
視程10km以上
天気現象
なし
気温13℃
湿度38%
気圧1015hPa
METARZWWW 160630Z 31004MPS 280V350 CAVOK 13/M01 Q1015 NOSIG
過去の天気等 Google飛行場航空写真 Wunderground天気予報

過去48時間のMETAR

飛行場予報(TAF)
発表時間: 10/16 11:21 CST (10/16 03:21 UTC)
予報対象時間: 16日14時 CST ~ 17日14時 CST
風向・風速北西 4m/s
視程10km以上
なし
16日21時 CST ~ 16日22時 CST に徐々に
風向・風速南南東 4m/s
17日9時 CST ~ 17日10時 CST に徐々に
風向・風速西北西 5m/s 瞬間風速 10m/s
視程6000m
全天の8割程度の雲 雲底高度 1220m
17日9時 CST ~ 17日11時 CST に一時的に
視程2000m
天気現象砂塵
TAF ZWWW 160321Z 1606/1706 32004MPS CAVOK TX15/1609Z TN04/1700Z
BECMG 1613/1614 16004MPS
BECMG 1701/1702 30005G10MPS 6000 BKN040
TEMPO 1701/1703 2000 SA